Time;durP1;ratioP1;P1;durP2;ratioP2;P2;SDS_P1;SDS_P2;PMS_P1;PMS_P2;Temp;Humidity;BMP_temperature;BMP_pressure;BME280_temperature;BME280_humidity;BME280_pressure;Samples;Min_cycle;Max_cycle;Signal;HPM_P1;HPM_P2
2022/02/28 00:00:04;;;;;;;35.95;25.35;;;;;;;-1.24;100.00;100526.06;2081929;28;20672;-74
2022/02/28 00:01:09;;;;;;;34.90;23.90;;;;;;;-1.29;100.00;100522.41;2082027;28;20187;-74
2022/02/28 00:02:12;;;;;;;32.15;23.50;;;;;;;-1.20;100.00;100526.53;2082124;28;20199;-74
2022/02/28 00:03:17;;;;;;;30.50;23.52;;;;;;;-1.05;100.00;100518.63;2081303;28;20199;-74
2022/02/28 00:04:21;;;;;;;32.80;23.55;;;;;;;-1.13;100.00;100524.78;2081557;28;20237;-74
2022/02/28 00:05:25;;;;;;;32.05;23.48;;;;;;;-1.10;100.00;100523.63;2081303;28;20199;-74
2022/02/28 00:06:27;;;;;;;36.85;24.80;;;;;;;-1.19;100.00;100518.50;2081506;28;20659;-74
2022/02/28 00:07:29;;;;;;;30.50;23.58;;;;;;;-1.08;100.00;100527.69;2081874;28;20188;-74
2022/02/28 00:08:34;;;;;;;36.03;25.40;;;;;;;-1.15;100.00;100521.53;2081945;28;20658;-75
2022/02/28 00:09:37;;;;;;;34.05;24.10;;;;;;;-1.23;100.00;100522.47;2081872;28;20188;-74
2022/02/28 00:10:40;;;;;;;33.13;25.45;;;;;;;-1.25;100.00;100516.59;2081231;28;20203;-72
2022/02/28 00:11:46;;;;;;;33.92;23.73;;;;;;;-1.27;100.00;100521.22;2081304;28;20270;-74
2022/02/28 00:12:50;;;;;;;39.50;23.67;;;;;;;-1.25;100.00;100524.44;2081987;28;20538;-74
2022/02/28 00:13:53;;;;;;;36.22;23.92;;;;;;;-1.31;100.00;100530.41;2081398;28;20697;-73
2022/02/28 00:14:58;;;;;;;29.02;22.95;;;;;;;-1.24;100.00;100528.69;2081594;28;20180;-74
2022/02/28 00:16:00;;;;;;;35.40;23.85;;;;;;;-1.26;100.00;100520.22;2081900;28;20191;-74
2022/02/28 00:17:02;;;;;;;34.30;22.77;;;;;;;-1.16;100.00;100525.97;2082063;28;20184;-73
2022/02/28 00:18:04;;;;;;;33.17;23.83;;;;;;;-1.04;100.00;100522.88;2082071;28;20475;-73
2022/02/28 00:19:08;;;;;;;40.58;24.83;;;;;;;-1.01;100.00;100519.91;2082718;28;20219;-73
2022/02/28 00:20:12;;;;;;;30.50;22.25;;;;;;;-0.98;100.00;100525.56;2082608;28;20203;-73
2022/02/28 00:21:16;;;;;;;27.88;22.00;;;;;;;-0.98;100.00;100516.91;2082178;28;20225;-73
2022/02/28 00:22:17;;;;;;;35.97;24.20;;;;;;;-1.09;100.00;100517.38;2083460;28;20231;-73
2022/02/28 00:23:20;;;;;;;36.28;23.77;;;;;;;-1.10;100.00;100521.00;2083386;28;20677;-73
2022/02/28 00:24:24;;;;;;;37.38;24.98;;;;;;;-1.20;100.00;100516.88;2083449;28;20542;-73
2022/02/28 00:25:30;;;;;;;33.45;23.85;;;;;;;-1.28;100.00;100519.59;2083397;28;20208;-73
2022/02/28 00:26:36;;;;;;;35.83;24.58;;;;;;;-1.33;100.00;100516.69;2082960;28;20210;-73
2022/02/28 00:27:38;;;;;;;34.20;23.92;;;;;;;-1.40;100.00;100512.38;2083043;28;20184;-73
2022/02/28 00:28:43;;;;;;;31.50;22.83;;;;;;;-1.34;100.00;100519.50;2083258;28;20223;-73
2022/02/28 00:29:45;;;;;;;36.60;24.52;;;;;;;-1.33;100.00;100513.28;2083564;28;20621;-73
2022/02/28 00:30:49;;;;;;;38.20;24.05;;;;;;;-1.24;100.00;100509.56;2090820;28;20313;-73
2022/02/28 00:31:52;;;;;;;37.65;25.83;;;;;;;-1.10;100.00;100500.88;2082640;28;20203;-73
2022/02/28 00:32:59;;;;;;;32.10;24.88;;;;;;;-1.10;100.00;100510.53;2075040;28;20200;-73
2022/02/28 00:34:03;;;;;;;33.20;24.00;;;;;;;-1.21;100.00;100507.41;2082739;28;20204;-73
2022/02/28 00:35:08;;;;;;;33.85;24.45;;;;;;;-1.23;100.00;100511.19;2082869;28;20199;-73
2022/02/28 00:36:12;;;;;;;39.55;25.75;;;;;;;-1.30;100.00;100505.06;2074594;28;20287;-73
2022/02/28 00:37:13;;;;;;;34.58;24.42;;;;;;;-1.37;100.00;100510.22;2074643;28;20299;-73
2022/02/28 00:38:17;;;;;;;34.97;25.00;;;;;;;-1.41;100.00;100508.94;2082655;28;20207;-73
2022/02/28 00:39:19;;;;;;;36.17;25.30;;;;;;;-1.46;100.00;100511.31;2083245;28;20684;-73
2022/02/28 00:40:25;;;;;;;35.90;24.98;;;;;;;-1.46;100.00;100514.75;2083190;28;20203;-73
2022/02/28 00:41:35;;;;;;;39.35;25.55;;;;;;;-1.48;100.00;100508.03;2082508;28;20203;-73
2022/02/28 00:42:41;;;;;;;38.03;24.38;;;;;;;-1.46;100.00;100513.94;2082708;28;20184;-73
2022/02/28 00:43:43;;;;;;;40.42;23.75;;;;;;;-1.50;100.00;100515.25;2083333;28;20279;-73
2022/02/28 00:44:46;;;;;;;33.80;23.95;;;;;;;-1.55;100.00;100507.16;2082522;28;20792;-73
2022/02/28 00:45:47;;;;;;;33.33;24.42;;;;;;;-1.54;100.00;100503.56;2082595;28;20255;-73
2022/02/28 00:46:56;;;;;;;33.03;23.58;;;;;;;-1.53;100.00;100507.78;2083285;28;20275;-73
2022/02/28 00:48:00;;;;;;;35.55;24.70;;;;;;;-1.58;100.00;100502.28;2082682;28;20199;-73
2022/02/28 00:49:04;;;;;;;34.65;24.27;;;;;;;-1.61;100.00;100506.06;2082692;28;20654;-73
2022/02/28 00:50:10;;;;;;;35.65;24.40;;;;;;;-1.63;100.00;100499.41;2082640;28;20207;-73
2022/02/28 00:51:13;;;;;;;40.55;24.90;;;;;;;-1.63;100.00;100504.63;2074629;28;20710;-73
2022/02/28 00:52:15;;;;;;;36.40;23.67;;;;;;;-1.61;100.00;100505.25;2082722;28;20183;-73
2022/02/28 00:53:21;;;;;;;34.53;24.05;;;;;;;-1.63;100.00;100504.63;2090659;28;20233;-73
2022/02/28 00:54:25;;;;;;;29.55;23.10;;;;;;;-1.61;100.00;100502.66;2082701;28;20203;-73
2022/02/28 00:55:28;;;;;;;33.40;23.63;;;;;;;-1.59;100.00;100500.66;2082827;28;20207;-73
2022/02/28 00:56:33;;;;;;;37.03;24.48;;;;;;;-1.51;100.00;100497.94;2083186;28;20737;-73
2022/02/28 00:57:35;;;;;;;32.60;23.23;;;;;;;-1.58;100.00;100505.69;2082448;28;20199;-73
2022/02/28 00:58:38;;;;;;;30.88;24.00;;;;;;;-1.63;100.00;100494.97;2074286;28;20736;-73
2022/02/28 00:59:40;;;;;;;32.17;24.05;;;;;;;-1.65;100.00;100493.50;2082438;28;20191;-74
2022/02/28 01:00:43;;;;;;;35.17;23.92;;;;;;;-1.63;100.00;100497.59;2083032;28;20663;-74
2022/02/28 01:01:47;;;;;;;34.42;24.13;;;;;;;-1.54;100.00;100499.13;2082942;28;20198;-73
2022/02/28 01:02:52;;;;;;;35.28;24.20;;;;;;;-1.59;100.00;100495.41;2082929;28;20686;-74
2022/02/28 01:03:54;;;;;;;34.47;23.92;;;;;;;-1.62;100.00;100485.31;2083227;28;20191;-73
2022/02/28 01:04:56;;;;;;;33.72;23.48;;;;;;;-1.62;100.00;100490.56;2083018;28;20195;-73
2022/02/28 01:05:59;;;;;;;36.10;24.27;;;;;;;-1.62;100.00;100495.78;2082516;28;20194;-72
2022/02/28 01:06:59;;;;;;;37.30;24.38;;;;;;;-1.67;100.00;100488.47;2083148;28;20222;-73
2022/02/28 01:08:04;;;;;;;33.95;24.63;;;;;;;-1.67;100.00;100493.69;2083155;28;20270;-73
2022/02/28 01:09:07;;;;;;;37.42;24.02;;;;;;;-1.69;100.00;100487.84;2082663;28;20218;-73
2022/02/28 01:10:14;;;;;;;35.03;24.10;;;;;;;-1.72;100.00;100490.84;2074433;28;20219;-73
2022/02/28 01:11:16;;;;;;;32.20;23.67;;;;;;;-1.65;100.00;100485.66;2082217;28;20230;-74
2022/02/28 01:12:20;;;;;;;33.03;23.25;;;;;;;-1.72;100.00;100475.13;2082555;28;20192;-73
2022/02/28 01:13:25;;;;;;;32.80;24.45;;;;;;;-1.73;100.00;100489.22;2083021;28;20183;-73
2022/02/28 01:14:27;;;;;;;37.92;24.00;;;;;;;-1.76;100.00;100485.13;2083229;28;20176;-73
2022/02/28 01:15:31;;;;;;;36.93;24.23;;;;;;;-1.80;100.00;100486.50;2090622;28;20206;-74
2022/02/28 01:16:33;;;;;;;34.72;23.45;;;;;;;-1.83;100.00;100486.84;2090281;28;20931;-73
2022/02/28 01:17:39;;;;;;;34.78;23.52;;;;;;;-1.83;100.00;100486.84;2082239;28;20566;-73
2022/02/28 01:18:41;;;;;;;33.28;23.80;;;;;;;-1.86;100.00;100479.38;2074662;28;20245;-73
2022/02/28 01:19:44;;;;;;;31.25;23.70;;;;;;;-1.87;100.00;100477.75;2074285;28;20223;-73
2022/02/28 01:20:45;;;;;;;36.97;24.02;;;;;;;-1.87;100.00;100485.59;2082315;28;20195;-73
2022/02/28 01:21:50;;;;;;;37.70;24.08;;;;;;;-1.90;100.00;100480.72;2090075;28;20269;-73
2022/02/28 01:22:52;;;;;;;36.58;24.20;;;;;;;-1.92;100.00;100487.91;2082216;28;20207;-73
2022/02/28 01:23:58;;;;;;;40.33;24.40;;;;;;;-1.91;100.00;100486.94;2082266;28;20561;-73
2022/02/28 01:25:02;;;;;;;33.33;23.60;;;;;;;-1.93;100.00;100478.44;2082581;28;20674;-74
2022/02/28 01:26:05;;;;;;;39.33;24.75;;;;;;;-1.93;100.00;100490.72;2082304;28;20194;-74
2022/02/28 01:27:10;;;;;;;34.78;23.75;;;;;;;-1.80;100.00;100483.88;2082859;28;20207;-73
2022/02/28 01:28:15;;;;;;;35.60;24.50;;;;;;;-1.72;100.00;100477.75;2082424;28;20220;-73
2022/02/28 01:29:16;;;;;;;31.77;23.80;;;;;;;-1.72;100.00;100486.41;2082128;28;20257;-73
2022/02/28 01:30:19;;;;;;;34.45;23.85;;;;;;;-1.78;100.00;100487.13;2082737;28;20192;-73
2022/02/28 01:31:22;;;;;;;32.55;22.63;;;;;;;-1.82;100.00;100485.06;2082290;28;20696;-74
2022/02/28 01:32:24;;;;;;;36.83;25.45;;;;;;;-1.87;100.00;100488.19;2074472;28;20299;-73
2022/02/28 01:33:29;;;;;;;38.40;24.05;;;;;;;-1.89;100.00;100487.56;2081728;28;20231;-74
2022/02/28 01:34:34;;;;;;;34.28;24.60;;;;;;;-1.89;100.00;100489.38;2089961;28;20273;-73
2022/02/28 01:35:37;;;;;;;33.05;24.00;;;;;;;-1.87;100.00;100485.59;2082007;28;20204;-73
2022/02/28 01:36:39;;;;;;;38.13;24.00;;;;;;;-1.79;100.00;100487.31;2081890;28;20646;-73
2022/02/28 01:37:46;;;;;;;34.08;23.08;;;;;;;-1.82;100.00;100483.25;2082166;28;20548;-73
2022/02/28 01:38:52;;;;;;;38.05;24.42;;;;;;;-1.82;100.00;100480.66;2082799;28;20187;-73
2022/02/28 01:39:55;;;;;;;30.35;23.00;;;;;;;-1.86;100.00;100483.78;2082225;28;20700;-73
2022/02/28 01:40:58;;;;;;;31.30;23.52;;;;;;;-1.80;100.00;100486.50;2074200;28;20202;-74
2022/02/28 01:42:01;;;;;;;31.90;23.83;;;;;;;-1.84;100.00;100482.59;2074396;28;20710;-73
2022/02/28 01:43:04;;;;;;;30.80;23.48;;;;;;;-1.89;100.00;100479.72;2081982;28;20291;-73
2022/02/28 01:44:07;;;;;;;30.35;23.80;;;;;;;-1.88;100.00;100475.31;2082421;28;20215;-73
2022/02/28 01:45:11;;;;;;;35.83;24.67;;;;;;;-1.84;100.00;100480.00;2082766;28;20199;-73
2022/02/28 01:46:17;;;;;;;32.85;24.10;;;;;;;-1.77;100.00;100478.28;2082781;28;20626;-74
2022/02/28 01:47:18;;;;;;;36.40;24.48;;;;;;;-1.68;100.00;100478.19;2082075;28;20252;-73
2022/02/28 01:48:23;;;;;;;35.65;24.00;;;;;;;-1.63;100.00;100474.03;2073782;28;20200;-73
2022/02/28 01:49:26;;;;;;;35.45;23.90;;;;;;;-1.69;100.00;100479.19;2074651;28;20280;-73
2022/02/28 01:50:30;;;;;;;34.20;23.73;;;;;;;-1.77;100.00;100475.66;2074694;28;20610;-73
2022/02/28 01:51:36;;;;;;;36.55;24.38;;;;;;;-1.85;100.00;100469.72;2073705;28;20583;-73
2022/02/28 01:52:39;;;;;;;34.67;24.90;;;;;;;-1.87;100.00;100477.75;2082310;28;20207;-73
2022/02/28 01:53:42;;;;;;;31.58;23.33;;;;;;;-1.88;100.00;100472.69;2082225;28;20204;-74
2022/02/28 01:54:45;;;;;;;36.08;24.10;;;;;;;-1.82;100.00;100470.19;2082661;28;20203;-74
2022/02/28 01:55:47;;;;;;;35.28;23.85;;;;;;;-1.82;100.00;100469.38;2082002;28;20700;-74
2022/02/28 01:56:49;;;;;;;33.92;23.85;;;;;;;-1.78;100.00;100470.63;2082150;28;20198;-74
2022/02/28 01:57:50;;;;;;;35.72;24.05;;;;;;;-1.73;100.00;100468.28;2081988;28;20210;-74
2022/02/28 01:58:56;;;;;;;31.60;23.30;;;;;;;-1.77;100.00;100470.44;2073923;28;20219;-74
2022/02/28 02:00:00;;;;;;;35.42;24.25;;;;;;;-1.86;100.00;100468.91;2082139;28;20240;-74
2022/02/28 02:01:03;;;;;;;39.03;23.50;;;;;;;-1.87;100.00;100472.50;2082120;28;20199;-74
2022/02/28 02:02:05;;;;;;;32.72;23.98;;;;;;;-1.91;100.00;100475.66;2082100;28;20201;-74
2022/02/28 02:03:09;;;;;;;37.45;23.85;;;;;;;-1.87;100.00;100466.47;2090088;28;20195;-74
2022/02/28 02:04:13;;;;;;;32.95;22.23;;;;;;;-1.87;100.00;100474.31;2089784;28;20194;-74
2022/02/28 02:05:17;;;;;;;35.05;23.67;;;;;;;-1.91;100.00;100476.50;2082196;28;20678;-74
2022/02/28 02:06:22;;;;;;;38.08;23.73;;;;;;;-2.02;100.00;100469.06;2081507;28;20223;-73
2022/02/28 02:07:28;;;;;;;36.35;23.42;;;;;;;-2.14;100.00;100465.28;2082317;28;20681;-74
2022/02/28 02:08:30;;;;;;;30.42;23.45;;;;;;;-2.16;100.00;100469.88;2089606;28;20199;-74
2022/02/28 02:09:33;;;;;;;33.95;24.70;;;;;;;-2.23;100.00;100471.56;2081878;28;20214;-74
2022/02/28 02:10:38;;;;;;;33.53;23.73;;;;;;;-2.21;100.00;100472.22;2081915;28;20208;-74
2022/02/28 02:11:41;;;;;;;33.70;23.33;;;;;;;-2.28;100.00;100475.53;2074181;28;20549;-73
2022/02/28 02:12:45;;;;;;;31.67;22.83;;;;;;;-2.30;100.00;100472.28;2074010;28;20204;-74
2022/02/28 02:13:53;;;;;;;30.70;23.52;;;;;;;-2.32;100.00;100473.44;2074463;28;20705;-73
2022/02/28 02:14:57;;;;;;;36.13;23.45;;;;;;;-2.33;100.00;100472.66;2081886;28;20229;-74
2022/02/28 02:16:02;;;;;;;32.20;23.75;;;;;;;-2.24;100.00;100481.22;2082459;28;20187;-74
2022/02/28 02:17:04;;;;;;;36.38;23.67;;;;;;;-2.28;100.00;100475.53;2081796;28;20207;-74
2022/02/28 02:18:08;;;;;;;30.17;23.08;;;;;;;-2.31;100.00;100470.66;2081840;28;20210;-74
2022/02/28 02:19:09;;;;;;;34.67;23.75;;;;;;;-2.33;100.00;100467.41;2081820;28;20655;-73
2022/02/28 02:20:34;;;;;;;35.55;24.27;;;;;;;-2.35;100.00;100468.56;2082063;28;20191;-74
2022/02/28 02:21:37;;;;;;;31.90;23.40;;;;;;;-2.37;100.00;100466.13;2076086;28;20258;-74
2022/02/28 02:22:55;;;;;;;32.55;23.65;;;;;;;-2.35;100.00;100469.38;2074172;28;20200;-74
2022/02/28 02:23:59;;;;;;;33.40;23.45;;;;;;;-2.17;100.00;100470.84;2082283;28;20646;-73
2022/02/28 02:25:02;;;;;;;31.17;23.25;;;;;;;-1.98;100.00;100470.34;2081707;28;20658;-74
2022/02/28 02:26:06;;;;;;;37.35;23.85;;;;;;;-1.87;100.00;100467.28;2081600;28;20203;-74
2022/02/28 02:27:09;;;;;;;35.80;23.80;;;;;;;-1.97;100.00;100466.75;2081823;28;20281;-73
2022/02/28 02:28:12;;;;;;;33.17;24.55;;;;;;;-2.08;100.00;100464.56;2081696;28;20697;-74
2022/02/28 02:29:15;;;;;;;29.73;22.80;;;;;;;-1.82;100.00;100464.94;2074003;28;20220;-73
2022/02/28 02:30:17;;;;;;;35.22;24.45;;;;;;;-1.91;100.00;100465.19;2074083;28;20208;-73
2022/02/28 02:31:22;;;;;;;35.13;25.02;;;;;;;-2.03;100.00;100457.00;2081644;28;20196;-74
2022/02/28 02:32:27;;;;;;;32.00;24.13;;;;;;;-1.92;100.00;100464.38;2074501;28;20250;-74
2022/02/28 02:33:31;;;;;;;31.15;24.08;;;;;;;-1.82;100.00;100459.72;2081374;28;20232;-73
2022/02/28 02:34:34;;;;;;;35.67;23.80;;;;;;;-1.81;100.00;100461.34;2073891;28;20196;-73
2022/02/28 02:35:41;;;;;;;35.58;24.08;;;;;;;-1.82;100.00;100451.88;2081663;28;20247;-73
2022/02/28 02:36:45;;;;;;;34.55;23.20;;;;;;;-1.87;100.00;100462.06;2081340;28;20223;-73
2022/02/28 02:37:48;;;;;;;37.45;23.98;;;;;;;-1.79;100.00;100459.34;2073981;28;20295;-74
2022/02/28 02:38:53;;;;;;;36.35;23.35;;;;;;;-1.78;100.00;100454.91;2073520;28;20647;-74
2022/02/28 02:39:59;;;;;;;31.63;23.50;;;;;;;-1.84;100.00;100459.06;2074079;28;20204;-74
2022/02/28 02:41:02;;;;;;;32.08;23.45;;;;;;;-1.90;100.00;100454.56;2073337;28;20196;-74
2022/02/28 02:42:04;;;;;;;35.17;24.42;;;;;;;-1.88;100.00;100454.38;2073904;28;20204;-73
2022/02/28 02:43:06;;;;;;;33.15;23.55;;;;;;;-1.87;100.00;100463.84;2073488;28;20761;-74
2022/02/28 02:44:09;;;;;;;29.10;22.77;;;;;;;-1.95;100.00;100462.13;2081727;28;20658;-74
2022/02/28 02:45:12;;;;;;;34.28;23.02;;;;;;;-1.85;100.00;100467.91;2089845;28;20285;-74
2022/02/28 02:46:16;;;;;;;32.90;23.38;;;;;;;-1.87;100.00;100462.06;2081586;28;20215;-75
2022/02/28 02:47:26;;;;;;;36.97;23.55;;;;;;;-1.72;100.00;100455.03;2081741;28;20614;-74
2022/02/28 02:48:48;;;;;;;35.00;22.85;;;;;;;-1.77;100.00;100465.19;2081582;28;20545;-74
2022/02/28 02:49:55;;;;;;;34.28;22.85;;;;;;;-1.85;100.00;100464.47;2081614;28;20597;-73
2022/02/28 02:51:01;;;;;;;41.38;23.23;;;;;;;-1.94;100.00;100466.38;2073862;28;20722;-73
2022/02/28 02:52:06;;;;;;;32.08;23.20;;;;;;;-1.72;100.00;100455.03;2082330;28;20210;-74
2022/02/28 02:53:13;;;;;;;35.20;22.55;;;;;;;-1.78;100.00;100463.59;2081580;28;20223;-74
2022/02/28 02:54:17;;;;;;;30.73;22.60;;;;;;;-1.79;100.00;100467.19;2081565;28;20206;-73
2022/02/28 02:55:20;;;;;;;27.33;21.65;;;;;;;-1.82;100.00;100477.22;2081442;28;20649;-74
2022/02/28 02:56:22;;;;;;;31.40;22.58;;;;;;;-1.75;100.00;100465.00;2073501;28;20223;-73
2022/02/28 02:57:26;;;;;;;34.08;22.98;;;;;;;-1.85;100.00;100462.69;2081717;28;20283;-74
2022/02/28 02:58:29;;;;;;;30.42;23.05;;;;;;;-1.85;100.00;100467.09;2089668;28;20293;-74
2022/02/28 02:59:31;;;;;;;36.45;23.55;;;;;;;-1.91;100.00;100463.41;2081392;28;20541;-73
2022/02/28 03:00:34;;;;;;;32.55;23.10;;;;;;;-1.94;100.00;100470.78;2081500;28;20192;-74
2022/02/28 03:01:46;;;;;;;34.83;24.00;;;;;;;-2.02;100.00;100469.06;2074675;28;20188;-74
2022/02/28 03:02:48;;;;;;;36.53;22.52;;;;;;;-1.89;100.00;100466.66;2081527;28;20192;-74
2022/02/28 03:03:50;;;;;;;34.92;23.25;;;;;;;-1.87;100.00;100477.75;2081447;28;20686;-74
2022/02/28 03:04:55;;;;;;;29.20;21.48;;;;;;;-1.79;100.00;100469.81;2073904;28;20590;-74
2022/02/28 03:06:01;;;;;;;30.55;22.70;;;;;;;-1.85;100.00;100469.72;2081418;28;20188;-73
2022/02/28 03:07:14;;;;;;;30.75;22.73;;;;;;;-1.86;100.00;100474.13;2081564;28;20211;-73
2022/02/28 03:08:18;;;;;;;30.50;22.35;;;;;;;-1.73;100.00;100476.13;2081506;28;20278;-73
2022/02/28 03:09:24;;;;;;;33.45;23.60;;;;;;;-1.85;100.00;100464.47;2081555;28;20242;-74
2022/02/28 03:10:27;;;;;;;27.40;22.08;;;;;;;-1.89;100.00;100471.88;2073717;28;20214;-73
2022/02/28 03:11:32;;;;;;;34.15;22.95;;;;;;;-1.92;100.00;100468.81;2073762;28;20211;-73
2022/02/28 03:12:39;;;;;;;29.33;21.10;;;;;;;-1.95;100.00;100469.97;2081375;28;20200;-73
2022/02/28 03:13:40;;;;;;;31.95;21.90;;;;;;;-1.97;100.00;100463.31;2073677;28;20706;-74
2022/02/28 03:14:44;;;;;;;29.40;22.20;;;;;;;-1.97;100.00;100466.75;2081516;28;20654;-73
2022/02/28 03:15:46;;;;;;;30.48;21.80;;;;;;;-2.04;100.00;100474.47;2073521;28;20334;-73
2022/02/28 03:16:53;;;;;;;37.60;23.42;;;;;;;-2.07;100.00;100477.47;2081369;28;20199;-74
2022/02/28 03:17:54;;;;;;;28.23;22.65;;;;;;;-2.14;100.00;100483.59;2081552;28;20199;-74
2022/02/28 03:18:59;;;;;;;43.77;23.83;;;;;;;-1.99;100.00;100473.97;2081660;28;20299;-74
2022/02/28 03:20:03;;;;;;;27.77;22.58;;;;;;;-2.06;100.00;100475.66;2081406;28;20554;-74
2022/02/28 03:21:07;;;;;;;28.77;22.05;;;;;;;-2.02;100.00;100469.88;2081223;28;20291;-73
2022/02/28 03:22:09;;;;;;;33.38;23.02;;;;;;;-2.10;100.00;100467.34;2081342;28;20261;-73
2022/02/28 03:23:18;;;;;;;27.88;22.23;;;;;;;-2.18;100.00;100474.44;2081432;28;20199;-74
2022/02/28 03:24:26;;;;;;;27.63;22.23;;;;;;;-2.28;100.00;100474.72;2074635;28;20211;-74
2022/02/28 03:25:29;;;;;;;29.30;22.58;;;;;;;-2.27;100.00;100466.69;2081664;28;20187;-73
2022/02/28 03:26:37;;;;;;;34.22;21.83;;;;;;;-2.13;100.00;100472.94;2081686;28;20253;-73
2022/02/28 03:27:44;;;;;;;27.63;21.17;;;;;;;-2.18;100.00;100469.22;2073949;28;20734;-74
2022/02/28 03:28:46;;;;;;;28.58;21.17;;;;;;;-2.10;100.00;100466.53;2081457;28;20264;-73
2022/02/28 03:29:51;;;;;;;34.67;22.48;;;;;;;-2.23;100.00;100476.81;2089579;28;20199;-73
2022/02/28 03:30:54;;;;;;;29.73;21.65;;;;;;;-2.31;100.00;100469.84;2089310;28;20240;-73
2022/02/28 03:31:57;;;;;;;36.05;22.25;;;;;;;-2.40;100.00;100466.50;2089570;28;20187;-73
2022/02/28 03:32:58;;;;;;;32.55;23.25;;;;;;;-2.45;100.00;100466.19;2081348;28;20570;-74
2022/02/28 03:34:01;;;;;;;33.70;24.10;;;;;;;-2.47;100.00;100470.78;2073368;28;20741;-73
2022/02/28 03:35:05;;;;;;;26.58;21.17;;;;;;;-2.39;100.00;100470.72;2081224;28;20200;-73
2022/02/28 03:36:11;;;;;;;30.25;21.90;;;;;;;-2.14;100.00;100473.13;2073209;28;20203;-73
2022/02/28 03:37:20;;;;;;;25.70;21.20;;;;;;;-2.29;100.00;100473.91;2074415;28;20192;-73
2022/02/28 03:38:24;;;;;;;30.05;22.60;;;;;;;-2.32;100.00;100476.88;2073525;28;20291;-73
2022/02/28 03:39:27;;;;;;;32.05;21.70;;;;;;;-2.44;100.00;100475.66;2073470;28;20282;-73
2022/02/28 03:40:33;;;;;;;32.78;22.38;;;;;;;-2.52;100.00;100473.09;2081493;28;20220;-73
2022/02/28 03:41:37;;;;;;;28.52;22.00;;;;;;;-2.53;100.00;100470.69;2074048;28;20276;-73
2022/02/28 03:42:43;;;;;;;31.73;22.90;;;;;;;-2.37;100.00;100470.53;2073859;28;20196;-73
2022/02/28 03:43:44;;;;;;;30.85;21.98;;;;;;;-2.25;100.00;100470.94;2081293;28;20210;-74
2022/02/28 03:44:50;;;;;;;30.77;22.05;;;;;;;-2.39;100.00;100468.13;2081325;28;20187;-73
2022/02/28 03:45:55;;;;;;;30.00;22.30;;;;;;;-2.47;100.00;100468.19;2073506;28;20234;-73
2022/02/28 03:47:00;;;;;;;27.60;21.02;;;;;;;-2.47;100.00;100469.97;2081480;28;20287;-74
2022/02/28 03:48:01;;;;;;;27.90;21.77;;;;;;;-2.41;100.00;100466.69;2081508;28;20200;-73
2022/02/28 03:49:22;;;;;;;30.27;21.42;;;;;;;-2.30;100.00;100469.66;2081975;28;20203;-73
2022/02/28 03:50:28;;;;;;;29.25;22.40;;;;;;;-2.43;100.00;100464.25;2081458;28;20195;-73
2022/02/28 03:51:34;;;;;;;28.70;21.33;;;;;;;-2.47;100.00;100473.41;2073000;28;20224;-73
2022/02/28 03:52:38;;;;;;;33.00;22.10;;;;;;;-2.58;100.00;100471.22;2073747;28;20192;-74
2022/02/28 03:53:43;;;;;;;30.27;22.05;;;;;;;-2.59;100.00;100467.00;2075895;28;20320;-73
2022/02/28 03:54:46;;;;;;;32.95;22.02;;;;;;;-2.65;100.00;100475.50;2074878;28;20188;-74
2022/02/28 03:55:49;;;;;;;29.02;21.08;;;;;;;-2.65;100.00;100468.50;2074825;28;20709;-73
2022/02/28 03:56:51;;;;;;;29.73;22.65;;;;;;;-2.68;100.00;100468.03;2075056;28;20683;-73
2022/02/28 03:57:52;;;;;;;29.30;21.70;;;;;;;-2.72;100.00;100471.97;2082988;28;20191;-73
2022/02/28 03:58:59;;;;;;;27.45;22.65;;;;;;;-2.76;100.00;100468.91;2082934;28;20283;-73
2022/02/28 04:00:02;;;;;;;30.42;22.70;;;;;;;-2.75;100.00;100474.94;2075640;28;20263;-74
2022/02/28 04:01:17;;;;;;;34.05;23.30;;;;;;;-2.51;100.00;100474.75;2083268;28;20206;-73
2022/02/28 04:02:25;;;;;;;31.85;22.38;;;;;;;-2.37;100.00;100479.19;2082836;28;20299;-73
2022/02/28 04:03:32;;;;;;;31.40;22.52;;;;;;;-2.40;100.00;100474.34;2075141;28;20543;-73
2022/02/28 04:04:35;;;;;;;25.45;21.88;;;;;;;-2.43;100.00;100473.84;2075708;28;20211;-73
2022/02/28 04:05:39;;;;;;;31.77;23.20;;;;;;;-2.42;100.00;100484.16;2074920;28;20600;-73
2022/02/28 04:06:47;;;;;;;27.23;21.88;;;;;;;-2.50;100.00;100480.81;2074836;28;20274;-73
2022/02/28 04:07:51;;;;;;;33.22;21.70;;;;;;;-2.56;100.00;100474.47;2082888;28;20192;-73
2022/02/28 04:08:52;;;;;;;38.53;23.83;;;;;;;-2.55;100.00;100473.47;2074662;28;20207;-73
2022/02/28 04:09:59;;;;;;;27.88;21.60;;;;;;;-2.59;100.00;100474.81;2082755;28;20277;-73
2022/02/28 04:11:02;;;;;;;29.17;22.80;;;;;;;-2.62;100.00;100475.16;2075309;28;20313;-73
2022/02/28 04:12:07;;;;;;;27.02;22.00;;;;;;;-2.70;100.00;100472.59;2074980;28;20188;-73
2022/02/28 04:13:12;;;;;;;31.17;22.92;;;;;;;-2.73;100.00;100475.56;2075145;28;20204;-73
2022/02/28 04:14:17;;;;;;;28.85;22.08;;;;;;;-2.65;100.00;100475.50;2075371;28;20197;-73
2022/02/28 04:15:19;;;;;;;32.38;23.40;;;;;;;-2.42;100.00;100465.88;2075386;28;20200;-73
2022/02/28 04:16:21;;;;;;;32.05;23.58;;;;;;;-2.35;100.00;100474.59;2074624;28;20205;-73
2022/02/28 04:17:46;;;;;;;28.00;21.90;;;;;;;-2.48;100.00;100471.78;2082862;28;20192;-73
2022/02/28 04:19:14;;;;;;;28.60;22.38;;;;;;;-2.63;100.00;100470.94;2082837;28;20207;-73
2022/02/28 04:20:25;;;;;;;28.90;23.13;;;;;;;-2.72;100.00;100467.56;2075715;28;20196;-73
2022/02/28 04:21:28;;;;;;;32.78;22.52;;;;;;;-2.69;100.00;100472.47;2074449;28;20223;-73
2022/02/28 04:22:34;;;;;;;27.25;21.70;;;;;;;-2.65;100.00;100468.50;2082604;28;20677;-73
2022/02/28 04:23:35;;;;;;;35.28;23.17;;;;;;;-2.72;100.00;100467.56;2075064;28;20240;-73
2022/02/28 04:24:39;;;;;;;31.75;23.65;;;;;;;-2.77;100.00;100472.50;2074516;28;20196;-73
2022/02/28 04:25:44;;;;;;;28.60;22.15;;;;;;;-2.76;100.00;100478.53;2074720;28;20200;-73
2022/02/28 04:26:50;;;;;;;28.40;21.90;;;;;;;-2.73;100.00;100475.56;2075083;28;20196;-73
2022/02/28 04:27:56;;;;;;;27.98;22.00;;;;;;;-2.68;100.00;100474.06;2082598;28;20214;-73
2022/02/28 04:29:00;;;;;;;26.02;22.42;;;;;;;-2.75;100.00;100477.56;2075449;28;20208;-73
2022/02/28 04:30:03;;;;;;;26.92;21.70;;;;;;;-2.82;100.00;100480.03;2074767;28;20219;-73
2022/02/28 04:31:05;;;;;;;28.45;23.13;;;;;;;-2.89;100.00;100474.69;2074636;28;20204;-73
2022/02/28 04:32:11;;;;;;;29.92;21.92;;;;;;;-2.89;100.00;100481.72;2082496;28;20283;-73
2022/02/28 04:33:20;;;;;;;28.23;22.05;;;;;;;-2.85;100.00;100488.22;2082105;28;20709;-73
2022/02/28 04:34:26;;;;;;;31.13;23.35;;;;;;;-2.81;100.00;100488.69;2074432;28;20211;-73
2022/02/28 04:35:29;;;;;;;38.58;22.05;;;;;;;-2.89;100.00;100492.97;2075080;28;20215;-73
2022/02/28 04:36:37;;;;;;;27.27;21.52;;;;;;;-2.97;100.00;100490.41;2075103;28;20228;-73
2022/02/28 04:37:40;;;;;;;26.95;21.35;;;;;;;-2.89;100.00;100492.16;2074991;28;20612;-73
2022/02/28 04:38:45;;;;;;;28.52;22.27;;;;;;;-2.95;100.00;100490.25;2075001;28;20283;-73
2022/02/28 04:39:47;;;;;;;28.10;23.13;;;;;;;-2.95;100.00;100488.47;2074522;28;20196;-73
2022/02/28 04:40:51;;;;;;;29.67;21.80;;;;;;;-2.80;100.00;100492.91;2082582;28;20654;-74
2022/02/28 04:41:59;;;;;;;31.02;22.83;;;;;;;-2.66;100.00;100493.00;2082705;28;20188;-73
2022/02/28 04:43:02;;;;;;;33.22;22.23;;;;;;;-2.81;100.00;100497.34;2082531;28;20211;-74
2022/02/28 04:44:07;;;;;;;25.83;22.23;;;;;;;-2.84;100.00;100495.09;2074677;28;20204;-73
2022/02/28 04:45:09;;;;;;;26.77;21.75;;;;;;;-2.86;100.00;100492.66;2074811;28;20196;-73
2022/02/28 04:46:14;;;;;;;26.48;21.90;;;;;;;-2.86;100.00;100500.47;2074574;28;20251;-73
2022/02/28 04:47:15;;;;;;;33.60;22.08;;;;;;;-2.78;100.00;100496.16;2075115;28;20307;-73
2022/02/28 04:48:39;;;;;;;36.83;23.38;;;;;;;-2.78;100.00;100488.34;2082363;28;20238;-73
2022/02/28 04:50:02;;;;;;;28.33;22.77;;;;;;;-2.90;100.00;100488.75;2082891;28;20218;-73